createdAt,value
2019-05-22T00:01:40.314Z,100885.50
2019-05-22T00:04:51.137Z,100886.58
2019-05-22T00:07:55.881Z,100894.41
2019-05-22T00:11:01.769Z,100887.21
2019-05-22T00:14:07.239Z,100883.69
2019-05-22T00:17:15.259Z,100889.02
2019-05-22T00:20:22.377Z,100886.05
2019-05-22T00:23:27.440Z,100889.02
2019-05-22T00:26:31.511Z,100888.28
2019-05-22T00:29:35.343Z,100889.32
2019-05-22T00:32:39.802Z,100886.75
2019-05-22T00:35:44.975Z,100886.67
2019-05-22T00:38:51.257Z,100896.26
2019-05-22T00:41:55.598Z,100898.72
2019-05-22T00:44:59.977Z,100902.47
2019-05-22T00:48:04.950Z,100897.94
2019-05-22T00:51:28.918Z,100905.23
2019-05-22T00:54:40.654Z,100902.05
2019-05-22T00:57:50.505Z,100905.80
2019-05-22T01:01:01.170Z,100913.10
2019-05-22T01:04:06.194Z,100914.28
2019-05-22T01:07:17.627Z,100915.61
2019-05-22T01:10:25.808Z,100914.44
2019-05-22T01:13:32.884Z,100907.75
2019-05-22T01:16:37.179Z,100912.41
2019-05-22T01:19:42.536Z,100908.48
2019-05-22T01:22:48.617Z,100916.19
2019-05-22T01:25:52.513Z,100918.38
2019-05-22T01:28:56.816Z,100917.12
2019-05-22T01:32:08.539Z,100919.85
2019-05-22T01:35:13.781Z,100924.34
2019-05-22T01:38:18.889Z,100933.27
2019-05-22T01:41:30.283Z,100930.62
2019-05-22T01:44:34.509Z,100931.09
2019-05-22T01:48:05.470Z,100943.82
2019-05-22T01:51:12.011Z,100928.69
2019-05-22T01:54:18.177Z,100934.71
2019-05-22T01:57:22.754Z,100938.04
2019-05-22T02:00:28.514Z,100936.86
2019-05-22T02:03:34.251Z,100941.23
2019-05-22T02:06:39.134Z,100952.78
2019-05-22T02:09:43.751Z,100949.53
2019-05-22T02:12:54.841Z,100952.34
2019-05-22T02:15:59.094Z,100947.21
2019-05-22T02:19:05.079Z,100951.73
2019-05-22T02:22:11.040Z,100954.11
2019-05-22T02:25:15.600Z,100956.70
2019-05-22T02:28:21.531Z,100952.88
2019-05-22T02:31:28.696Z,100948.09
2019-05-22T02:34:32.460Z,100944.96
2019-05-22T02:37:36.977Z,100957.97
2019-05-22T02:40:43.960Z,100954.58
2019-05-22T02:43:48.110Z,100960.62
2019-05-22T02:46:53.049Z,100963.09
2019-05-22T02:49:58.163Z,100970.84
2019-05-22T02:53:03.341Z,100963.77
2019-05-22T02:56:07.229Z,100957.50
2019-05-22T02:59:13.035Z,100969.52
2019-05-22T03:02:18.094Z,100964.74
2019-05-22T03:05:24.961Z,100966.86
2019-05-22T03:08:46.136Z,100966.05
2019-05-22T03:11:57.719Z,100976.30
2019-05-22T03:15:04.067Z,100980.16
2019-05-22T03:18:08.633Z,100968.70
2019-05-22T03:21:13.695Z,100976.42
2019-05-22T03:24:17.780Z,100984.39
2019-05-22T03:27:38.653Z,100986.14
2019-05-22T03:30:44.012Z,100990.61
2019-05-22T03:33:48.301Z,100993.08
2019-05-22T03:36:53.557Z,100992.22
2019-05-22T03:39:57.294Z,100991.36
2019-05-22T03:43:05.679Z,100989.87
2019-05-22T03:46:44.005Z,100999.86
2019-05-22T03:49:49.559Z,101003.99
2019-05-22T03:52:55.105Z,101008.47
2019-05-22T03:55:58.830Z,101016.73
2019-05-22T03:59:03.600Z,101015.34
2019-05-22T04:02:09.655Z,101024.53
2019-05-22T04:05:14.796Z,101023.63
2019-05-22T04:08:21.470Z,101017.42
2019-05-22T04:11:28.730Z,101023.02
2019-05-22T04:14:37.782Z,101024.28
2019-05-22T04:17:44.990Z,101028.91
2019-05-22T04:20:48.985Z,101026.86
2019-05-22T04:23:52.878Z,101026.44
2019-05-22T04:26:57.327Z,101036.02
2019-05-22T04:30:01.522Z,101025.43
2019-05-22T04:33:05.316Z,101034.22
2019-05-22T04:36:10.454Z,101038.20
2019-05-22T04:39:24.044Z,101036.55
2019-05-22T04:42:29.218Z,101048.90
2019-05-22T04:45:32.933Z,101048.16
2019-05-22T04:48:37.867Z,101055.33
2019-05-22T04:51:42.050Z,101060.25
2019-05-22T04:54:45.752Z,101058.28
2019-05-22T04:57:50.340Z,101061.16
2019-05-22T05:00:55.119Z,101061.80
2019-05-22T05:04:00.018Z,101065.63
2019-05-22T05:07:07.267Z,101069.45
2019-05-22T05:10:11.931Z,101069.73
2019-05-22T05:13:16.424Z,101072.05
2019-05-22T05:16:20.469Z,101077.87
2019-05-22T05:19:24.637Z,101082.17
2019-05-22T05:22:44.179Z,101082.61
2019-05-22T05:25:48.040Z,101093.11
2019-05-22T05:28:52.413Z,101094.30
2019-05-22T05:31:56.848Z,101091.77
2019-05-22T05:35:05.766Z,101094.47
2019-05-22T05:38:10.899Z,101094.03
2019-05-22T05:41:15.348Z,101099.42
2019-05-22T05:44:19.359Z,101107.49
2019-05-22T05:47:23.926Z,101102.08
2019-05-22T05:50:39.062Z,101102.02
2019-05-22T05:53:42.123Z,101100.44
2019-05-22T05:56:48.379Z,101096.80
2019-05-22T05:59:52.361Z,101106.62
2019-05-22T06:03:01.205Z,101107.59
2019-05-22T06:06:47.886Z,101114.34
2019-05-22T06:10:39.464Z,101127.16
2019-05-22T06:13:43.679Z,101117.34
2019-05-22T06:17:28.879Z,101133.27
2019-05-22T06:20:33.261Z,101125.59
2019-05-22T06:24:15.308Z,101132.06
2019-05-22T06:27:41.773Z,101133.86
2019-05-22T06:30:47.558Z,101146.78
2019-05-22T06:33:51.600Z,101148.17
2019-05-22T06:36:58.783Z,101147.08
2019-05-22T06:40:02.592Z,101152.63
2019-05-22T06:44:01.271Z,101158.63
2019-05-22T06:47:08.311Z,101150.66
2019-05-22T06:50:12.426Z,101157.70
2019-05-22T06:53:16.579Z,101162.84
2019-05-22T06:56:23.772Z,101161.09
2019-05-22T06:59:25.960Z,101158.57
2019-05-22T07:02:35.483Z,101160.45
2019-05-22T07:05:39.724Z,101153.49
2019-05-22T07:08:43.719Z,101157.23
2019-05-22T07:11:47.436Z,101159.97
2019-05-22T07:15:31.164Z,101161.33
2019-05-22T07:18:35.005Z,101166.92
2019-05-22T07:21:39.551Z,101173.27
2019-05-22T07:24:43.824Z,101170.52
2019-05-22T07:27:48.710Z,101182.00
2019-05-22T07:30:53.667Z,101185.70
2019-05-22T07:33:58.099Z,101184.83
2019-05-22T07:37:03.170Z,101189.97
2019-05-22T07:40:07.846Z,101195.34
2019-05-22T07:43:11.833Z,101205.22
2019-05-22T07:46:15.610Z,101202.33
2019-05-22T07:49:21.073Z,101217.86
2019-05-22T07:52:25.376Z,101219.66
2019-05-22T07:55:32.168Z,101224.81
2019-05-22T07:58:36.211Z,101228.82
2019-05-22T08:01:40.406Z,101230.52
2019-05-22T08:04:45.765Z,101236.77
2019-05-22T08:07:51.414Z,101228.48
2019-05-22T08:10:57.136Z,101232.58
2019-05-22T08:14:01.310Z,101238.09
2019-05-22T08:17:08.404Z,101245.53
2019-05-22T08:20:12.829Z,101245.12
2019-05-22T08:23:17.713Z,101238.83
2019-05-22T08:26:23.546Z,101245.63
2019-05-22T08:29:27.871Z,101247.09
2019-05-22T08:32:32.954Z,101248.36
2019-05-22T08:35:37.143Z,101249.45
2019-05-22T08:38:43.771Z,101255.77
2019-05-22T08:41:47.740Z,101260.22
2019-05-22T08:44:51.821Z,101263.04
2019-05-22T08:47:56.236Z,101267.89
2019-05-22T08:51:01.213Z,101271.55
2019-05-22T08:54:06.570Z,101273.45
2019-05-22T08:57:12.410Z,101280.87
2019-05-22T09:00:18.116Z,101277.35
2019-05-22T09:03:22.203Z,101280.88
2019-05-22T09:06:26.181Z,101284.37
2019-05-22T09:09:29.887Z,101297.20
2019-05-22T09:12:34.330Z,101297.77
2019-05-22T09:15:40.457Z,101295.11
2019-05-22T09:18:44.375Z,101299.03
2019-05-22T09:21:48.858Z,101304.48
2019-05-22T09:24:53.038Z,101310.16
2019-05-22T09:27:57.317Z,101307.33
2019-05-22T09:31:01.116Z,101308.13
2019-05-22T09:34:04.984Z,101316.58
2019-05-22T09:37:08.762Z,101319.56
2019-05-22T09:40:13.198Z,101320.63
2019-05-22T09:43:17.416Z,101325.28
2019-05-22T09:46:22.414Z,101329.95
2019-05-22T09:49:26.593Z,101327.45
2019-05-22T09:52:30.956Z,101331.06
2019-05-22T09:55:35.837Z,101334.28
2019-05-22T09:58:40.042Z,101339.23
2019-05-22T10:01:43.957Z,101342.22
2019-05-22T10:04:47.998Z,101346.05
2019-05-22T10:08:00.736Z,101344.09
2019-05-22T10:10:58.763Z,101345.91
2019-05-22T10:14:03.088Z,101352.73
2019-05-22T10:17:08.733Z,101350.06
2019-05-22T10:20:13.846Z,101359.67
2019-05-22T10:23:18.793Z,101359.08
2019-05-22T10:26:23.058Z,101359.88
2019-05-22T10:29:27.404Z,101366.83
2019-05-22T10:32:32.568Z,101368.86
2019-05-22T10:35:37.258Z,101372.78
2019-05-22T10:38:41.232Z,101365.27
2019-05-22T10:41:45.009Z,101364.20
2019-05-22T10:44:49.957Z,101365.73
2019-05-22T10:47:53.840Z,101376.63
2019-05-22T10:50:57.542Z,101387.27
2019-05-22T10:54:01.390Z,101374.41
2019-05-22T10:57:05.722Z,101380.50
2019-05-22T11:00:12.914Z,101376.37
2019-05-22T11:03:17.936Z,101377.38
2019-05-22T11:06:22.479Z,101394.11
2019-05-22T11:09:27.317Z,101394.03
2019-05-22T11:12:32.002Z,101390.52
2019-05-22T11:15:35.803Z,101391.33
2019-05-22T11:18:41.059Z,101390.57
2019-05-22T11:21:45.496Z,101400.80
2019-05-22T11:24:49.698Z,101402.23
2019-05-22T11:27:54.542Z,101402.02
2019-05-22T11:30:58.570Z,101404.39
2019-05-22T11:34:02.371Z,101403.99
2019-05-22T11:37:06.723Z,101415.34
2019-05-22T11:40:12.356Z,101406.55
2019-05-22T11:43:16.242Z,101415.55
2019-05-22T11:46:20.360Z,101414.37
2019-05-22T11:49:24.690Z,101420.63
2019-05-22T11:52:29.853Z,101419.95
2019-05-22T11:55:45.130Z,101432.00
2019-05-22T11:58:39.423Z,101432.58
2019-05-22T12:01:44.039Z,101438.80
2019-05-22T12:04:49.018Z,101443.10
2019-05-22T12:07:54.381Z,101444.64
2019-05-22T12:10:59.041Z,101444.13
2019-05-22T12:14:03.342Z,101448.62
2019-05-22T12:17:07.691Z,101450.27
2019-05-22T12:20:13.353Z,101455.78
2019-05-22T12:23:17.366Z,101455.91
2019-05-22T12:26:21.817Z,101454.11
2019-05-22T12:29:25.795Z,101455.37
2019-05-22T12:32:31.250Z,101454.70
2019-05-22T12:35:35.100Z,101452.95
2019-05-22T12:38:39.446Z,101452.55
2019-05-22T12:41:45.766Z,101453.63
2019-05-22T12:44:49.574Z,101457.52
2019-05-22T12:47:54.164Z,101461.88
2019-05-22T12:50:58.616Z,101452.38
2019-05-22T12:54:03.002Z,101452.47
2019-05-22T12:57:06.987Z,101457.74
2019-05-22T13:00:11.085Z,101454.06
2019-05-22T13:03:15.586Z,101455.89
2019-05-22T13:06:20.215Z,101465.17
2019-05-22T13:09:24.185Z,101457.46
2019-05-22T13:12:28.042Z,101451.48
2019-05-22T13:15:32.912Z,101461.41
2019-05-22T13:18:37.249Z,101457.53
2019-05-22T13:21:42.263Z,101462.38
2019-05-22T13:24:46.515Z,101457.58
2019-05-22T13:27:53.304Z,101465.62
2019-05-22T13:30:58.152Z,101463.34
2019-05-22T13:34:03.704Z,101469.83
2019-05-22T13:37:10.051Z,101468.75
2019-05-22T13:40:27.080Z,101472.83
2019-05-22T13:43:20.577Z,101477.47
2019-05-22T13:46:24.542Z,101483.36
2019-05-22T13:49:30.430Z,101486.83
2019-05-22T13:52:35.288Z,101484.80
2019-05-22T13:55:40.096Z,101491.41
2019-05-22T13:58:44.455Z,101494.79
2019-05-22T14:01:48.239Z,101496.08
2019-05-22T14:04:52.125Z,101495.08
2019-05-22T14:07:55.832Z,101492.23
2019-05-22T14:11:00.217Z,101505.52
2019-05-22T14:14:04.352Z,101497.14
2019-05-22T14:17:08.307Z,101506.73
2019-05-22T14:20:15.880Z,101508.84
2019-05-22T14:23:20.232Z,101504.84
2019-05-22T14:26:24.552Z,101497.02
2019-05-22T14:29:28.800Z,101507.00
2019-05-22T14:32:32.985Z,101499.56
2019-05-22T14:35:48.266Z,101497.14
2019-05-22T14:38:46.392Z,101498.55
2019-05-22T14:41:50.216Z,101488.27
2019-05-22T14:44:54.290Z,101503.50
2019-05-22T14:47:58.340Z,101503.50
2019-05-22T14:51:02.206Z,101516.08
2019-05-22T14:54:07.985Z,101507.89
2019-05-22T14:57:12.211Z,101513.17
2019-05-22T15:00:17.698Z,101521.95
2019-05-22T15:03:21.473Z,101539.30
2019-05-22T15:06:26.005Z,101515.04
2019-05-22T15:09:30.024Z,101509.16
2019-05-22T15:12:34.041Z,101509.16
2019-05-22T15:15:40.642Z,101514.34
2019-05-22T15:18:43.875Z,101513.41
2019-05-22T15:21:48.066Z,101513.41
2019-05-22T15:24:53.538Z,101515.27
2019-05-22T15:27:57.809Z,101518.22
2019-05-22T15:31:03.428Z,101514.22
2019-05-22T15:34:08.240Z,101512.61
2019-05-22T15:37:13.553Z,101510.84
2019-05-22T15:40:19.191Z,101510.73
2019-05-22T15:43:24.729Z,101512.45
2019-05-22T15:46:29.056Z,101508.45
2019-05-22T15:49:34.060Z,101509.98
2019-05-22T15:52:39.812Z,101509.98
2019-05-22T15:55:45.941Z,101507.35
2019-05-22T15:58:53.938Z,101511.03
2019-05-22T16:01:59.409Z,101503.47
2019-05-22T16:05:05.759Z,101503.00
2019-05-22T16:08:10.769Z,101503.00
2019-05-22T16:11:16.858Z,101497.15
2019-05-22T16:14:21.889Z,101499.81
2019-05-22T16:17:28.778Z,101501.81
2019-05-22T16:20:33.517Z,101506.88
2019-05-22T16:23:38.325Z,101503.02
2019-05-22T16:26:42.660Z,101502.62
2019-05-22T16:29:46.764Z,101506.28
2019-05-22T16:32:50.966Z,101516.48
2019-05-22T16:35:55.174Z,101519.83
2019-05-22T16:38:59.618Z,101517.23
2019-05-22T16:42:04.279Z,101521.89
2019-05-22T16:45:09.280Z,101523.69
2019-05-22T16:48:28.383Z,101525.55
2019-05-22T16:51:21.538Z,101524.09
2019-05-22T16:54:26.552Z,101527.63
2019-05-22T16:57:31.392Z,101531.50
2019-05-22T17:00:36.269Z,101526.36
2019-05-22T17:03:40.303Z,101528.23
2019-05-22T17:06:44.346Z,101540.88
2019-05-22T17:09:49.492Z,101528.54
2019-05-22T17:12:54.744Z,101531.94
2019-05-22T17:15:59.752Z,101535.83
2019-05-22T17:19:23.816Z,101532.42
2019-05-22T17:22:11.355Z,101532.98
2019-05-22T17:25:16.952Z,101536.30
2019-05-22T17:28:20.925Z,101533.20
2019-05-22T17:31:26.801Z,101541.67
2019-05-22T17:34:37.127Z,101540.45
2019-05-22T17:37:42.107Z,101546.18
2019-05-22T17:40:47.011Z,101544.48
2019-05-22T17:43:50.995Z,101534.70
2019-05-22T17:46:55.873Z,101543.35
2019-05-22T17:50:01.508Z,101543.06
2019-05-22T17:53:05.994Z,101543.61
2019-05-22T17:56:10.046Z,101537.12
2019-05-22T17:59:14.581Z,101540.86
2019-05-22T18:02:20.869Z,101545.23
2019-05-22T18:05:27.091Z,101544.80
2019-05-22T18:08:31.068Z,101540.80
2019-05-22T18:11:34.768Z,101545.27
2019-05-22T18:14:38.837Z,101551.77
2019-05-22T18:17:42.577Z,101551.87
2019-05-22T18:20:46.860Z,101555.70
2019-05-22T18:23:50.930Z,101558.36
2019-05-22T18:26:54.700Z,101558.82
2019-05-22T18:29:58.759Z,101568.14
2019-05-22T18:33:02.828Z,101571.42
2019-05-22T18:36:06.634Z,101564.30
2019-05-22T18:39:12.080Z,101566.42
2019-05-22T18:42:15.832Z,101564.84
2019-05-22T18:45:21.358Z,101565.42
2019-05-22T18:48:25.288Z,101563.85
2019-05-22T18:51:29.760Z,101570.81
2019-05-22T18:54:33.547Z,101576.75
2019-05-22T18:57:37.637Z,101577.16
2019-05-22T19:00:41.654Z,101582.78
2019-05-22T19:03:45.430Z,101578.50
2019-05-22T19:06:49.484Z,101583.14
2019-05-22T19:09:53.216Z,101578.84
2019-05-22T19:12:57.733Z,101585.48
2019-05-22T19:16:01.449Z,101584.53
2019-05-22T19:19:05.627Z,101591.78
2019-05-22T19:22:09.450Z,101595.97
2019-05-22T19:25:13.702Z,101599.58
2019-05-22T19:28:17.635Z,101600.42
2019-05-22T19:31:21.526Z,101598.82
2019-05-22T19:34:25.226Z,101610.43
2019-05-22T19:37:29.576Z,101600.67
2019-05-22T19:40:33.796Z,101611.88
2019-05-22T19:43:37.663Z,101612.44
2019-05-22T19:46:41.479Z,101617.71
2019-05-22T19:49:45.345Z,101613.50
2019-05-22T19:52:49.243Z,101617.23
2019-05-22T19:55:53.726Z,101615.46
2019-05-22T19:58:58.559Z,101614.73
2019-05-22T20:02:04.074Z,101622.28
2019-05-22T20:05:09.100Z,101619.77
2019-05-22T20:08:13.124Z,101619.20
2019-05-22T20:11:16.900Z,101626.19
2019-05-22T20:14:20.975Z,101627.78
2019-05-22T20:17:24.678Z,101633.77
2019-05-22T20:20:29.090Z,101625.35
2019-05-22T20:23:36.472Z,101627.82
2019-05-22T20:26:39.064Z,101625.63
2019-05-22T20:29:43.308Z,101622.21
2019-05-22T20:32:47.588Z,101621.55
2019-05-22T20:35:51.296Z,101619.45
2019-05-22T20:38:55.001Z,101616.95
2019-05-22T20:41:59.208Z,101619.45
2019-05-22T20:45:03.491Z,101628.08
2019-05-22T20:48:12.170Z,101623.75
2019-05-22T20:51:16.879Z,101621.91
2019-05-22T20:54:21.152Z,101627.52
2019-05-22T20:57:26.556Z,101626.66
2019-05-22T21:00:31.827Z,101629.03
2019-05-22T21:03:36.752Z,101629.09
2019-05-22T21:06:48.556Z,101630.60
2019-05-22T21:09:52.845Z,101634.16
2019-05-22T21:12:57.555Z,101636.00
2019-05-22T21:16:03.087Z,101646.64
2019-05-22T21:19:07.954Z,101640.21
2019-05-22T21:22:14.319Z,101643.45
2019-05-22T21:25:18.322Z,101645.23
2019-05-22T21:28:22.572Z,101646.14
2019-05-22T21:31:27.092Z,101644.64
2019-05-22T21:34:31.352Z,101643.03
2019-05-22T21:37:35.324Z,101643.45
2019-05-22T21:40:39.752Z,101643.25
2019-05-22T21:43:44.099Z,101645.61
2019-05-22T21:46:48.104Z,101646.02
2019-05-22T21:49:52.369Z,101647.34
2019-05-22T21:52:56.526Z,101643.42
2019-05-22T21:56:05.114Z,101645.23
2019-05-22T21:59:07.169Z,101642.77
2019-05-22T22:02:15.870Z,101647.77
2019-05-22T22:05:20.808Z,101649.05
2019-05-22T22:08:25.143Z,101648.38
2019-05-22T22:11:29.544Z,101641.80
2019-05-22T22:14:33.667Z,101646.64
2019-05-22T22:17:37.306Z,101642.94
2019-05-22T22:20:41.745Z,101647.70
2019-05-22T22:23:47.076Z,101641.78
2019-05-22T22:26:51.442Z,101645.62
2019-05-22T22:29:55.659Z,101645.33
2019-05-22T22:33:02.106Z,101654.62
2019-05-22T22:36:08.406Z,101656.32
2019-05-22T22:39:14.766Z,101657.75
2019-05-22T22:42:22.109Z,101657.86
2019-05-22T22:45:37.052Z,101658.77
2019-05-22T22:48:41.936Z,101658.95
2019-05-22T22:51:48.943Z,101659.85
2019-05-22T22:54:52.646Z,101663.75
2019-05-22T22:57:56.712Z,101668.58
2019-05-22T23:01:03.204Z,101666.08
2019-05-22T23:04:10.133Z,101670.98
2019-05-22T23:07:17.270Z,101670.53
2019-05-22T23:10:23.053Z,101668.79
2019-05-22T23:13:27.862Z,101671.59
2019-05-22T23:16:32.510Z,101673.30
2019-05-22T23:19:35.832Z,101670.24
2019-05-22T23:22:40.120Z,101669.80
2019-05-22T23:25:44.135Z,101670.70
2019-05-22T23:28:47.927Z,101672.11
2019-05-22T23:31:53.693Z,101675.95
2019-05-22T23:34:59.414Z,101667.19
2019-05-22T23:38:03.982Z,101666.47
2019-05-22T23:41:08.202Z,101666.44
2019-05-22T23:44:14.383Z,101671.76
2019-05-22T23:47:18.949Z,101669.12
2019-05-22T23:50:23.201Z,101662.00
2019-05-22T23:53:28.266Z,101665.19
2019-05-22T23:56:33.607Z,101664.64
2019-05-22T23:59:39.823Z,101657.20
